DucheSS Of Scandinavia — OUZI2 — position and weather

sailwx.info

Track history (hours):
 
Tides and Currents Weather Stations Pressure Air Temp Water Temp Dewpoint Dewpoint Depression Visibility Wind Speed Wind Dir Waves Ship Positions

DucheSS Of Scandinavia

Operator: DFDS A/S

Last reported at 2016-Dec-24 05:14 UTC. Time now 2017-Jan-24 23:28 UTC.
Position N 56°11' E 011°05'.
Warning: this ship's position is 31 days out of date.

Length 134 m; draft 5.4 m.

Type: Passenger vessel. MMSI: 219002929.

Date/timePositionNaut miles runAvg speedWind from/ knotsBaromVisibWave heightAir tempDewpointWater temp
2016-Dec-24 05:14N 56°11' E 011°05'7515.8
2016-Dec-24 00:30N 57°25' E 010°43'1415.3
2016-Dec-23 23:33N 57°39' E 010°44'1514.8
2016-Dec-23 22:33N 57°54' E 010°42'4314.3
2016-Dec-23 19:33N 58°36' E 010°26'1413.7
2016-Dec-23 18:33N 58°50' E 010°21'1414.1
2016-Dec-23 17:34N 59°03' E 010°15'3 2.9
2016-Dec-23 16:34N 59°06' E 010°14'0 0.1
2016-Dec-23 15:33N 59°06' E 010°14'0 0.0
2016-Dec-23 14:34N 59°06' E 010°14'1 1.4
2016-Dec-23 13:34N 59°08' E 010°14'9 9.4
2016-Dec-23 12:34N 59°01' E 010°26'1514.7
2016-Dec-23 11:34N 59°00' E 010°55'9 9.2
2016-Dec-23 10:34N 58°56' E 011°10'6 5.9
2016-Dec-23 09:33N 58°59' E 011°00'1515.4
2016-Dec-23 08:34N 59°00' E 010°31'1111.2
2016-Dec-23 07:33N 59°07' E 010°14'0 0.3
2016-Dec-23 06:33N 59°07' E 010°14'1 0.9
2016-Dec-23 05:31N 59°06' E 010°14'0 0.0
2016-Dec-23 04:17N 59°06' E 010°14'0 0.0
2016-Dec-23 03:33N 59°06' E 010°14'0 0.0
2016-Dec-23 02:33N 59°06' E 010°14'0 0.0
2016-Dec-23 01:28N 59°06' E 010°14'0 0.0
2016-Dec-23 00:32N 59°06' E 010°14'0 0.0
2016-Dec-22 23:32N 59°06' E 010°14'0 0.0
2016-Dec-22 22:33N 59°06' E 010°14'0 0.0
2016-Dec-22 21:31N 59°06' E 010°14'1 1.3
2016-Dec-22 20:33N 59°07' E 010°14'6 6.4
2016-Dec-22 19:33N 59°01' E 010°18'1312.5
2016-Dec-22 18:33N 59°02' E 010°43'1414.1
2016-Dec-22 17:34N 58°56' E 011°08'2 2.3
2016-Dec-22 16:34N 58°57' E 011°04'1515.1
2016-Dec-22 15:34N 59°01' E 010°35'1312.5
2016-Dec-22 14:34N 59°07' E 010°14'1 0.9
2016-Dec-22 13:34N 59°08' E 010°14'1111.3
2016-Dec-22 12:34N 59°00' E 010°30'1413.9
2016-Dec-22 11:34N 59°00' E 010°57'8 7.8
2016-Dec-22 10:33N 58°56' E 011°10'5 5.2
2016-Dec-22 09:34N 58°59' E 011°01'1515.1
2016-Dec-22 08:34N 59°01' E 010°32'1211.7
2016-Dec-22 07:33N 59°07' E 010°14'1 1.2
2016-Dec-22 06:34N 59°06' E 010°14'0 0.0
2016-Dec-22 05:33N 59°06' E 010°14'0 0.0
2016-Dec-22 04:31N 59°06' E 010°14'0 0.0
2016-Dec-22 03:31N 59°06' E 010°14'0 0.0
2016-Dec-22 02:32N 59°06' E 010°14'0 0.0
2016-Dec-22 01:33N 59°06' E 010°14'0 0.0
2016-Dec-22 00:30N 59°06' E 010°14'0 0.0
2016-Dec-21 23:28N 59°06' E 010°14'0 0.0
2016-Dec-21 22:32N 59°06' E 010°14'0 0.0
2016-Dec-21 21:32N 59°06' E 010°14'1 0.8
2016-Dec-21 20:34N 59°07' E 010°14'4 3.7
2016-Dec-21 19:34N 59°03' E 010°15'1313.0
2016-Dec-21 18:34N 59°01' E 010°40'1514.8
2016-Dec-21 17:33N 58°56' E 011°07'1 1.5
2016-Dec-21 16:34N 58°57' E 011°04'1414.4
2016-Dec-21 15:34N 59°01' E 010°38'1313.0
2016-Dec-21 14:33N 59°06' E 010°14'2 1.6
2016-Dec-21 13:33N 59°08' E 010°14'10 9.6
2016-Dec-21 12:34N 59°01' E 010°27'1414.3
2016-Dec-21 11:34N 59°01' E 010°54'9 9.4
2016-Dec-21 10:33N 58°56' E 011°10'4 4.4
2016-Dec-21 09:34N 58°58' E 011°03'1515.0
2016-Dec-21 08:34N 59°01' E 010°34'1212.2
2016-Dec-21 07:34N 59°07' E 010°14'0 0.2
2016-Dec-21 06:33N 59°07' E 010°14'1 1.1
2016-Dec-21 05:32N 59°06' E 010°14'0 0.0
2016-Dec-21 04:32N 59°06' E 010°14'0 0.0
2016-Dec-21 03:33N 59°06' E 010°14'0 0.0
2016-Dec-21 02:31N 59°06' E 010°14'0 0.0
2016-Dec-21 01:31N 59°06' E 010°14'0 0.0
2016-Dec-21 00:32N 59°06' E 010°14'0 0.0
2016-Dec-20 23:30N 59°06' E 010°14'0 0.0
2016-Dec-20 22:33N 59°06' E 010°14'0 0.0
2016-Dec-20 21:25N 59°06' E 010°14'0 0.1
2016-Dec-20 20:34N 59°06' E 010°14'1 1.3
2016-Dec-20 19:34N 59°05' E 010°15'1313.2
2016-Dec-20 18:34N 59°02' E 010°39'1515.1
2016-Dec-20 17:34N 58°56' E 011°07'2 1.6
2016-Dec-20 16:34N 58°57' E 011°04'1413.7
2016-Dec-20 15:33N 59°01' E 010°39'1313.1
2016-Dec-20 14:34N 59°05' E 010°14'2 2.4
2016-Dec-20 13:34N 59°08' E 010°14'10 9.7
2016-Dec-20 12:33N 59°01' E 010°27'1414.2
2016-Dec-20 11:33N 59°01' E 010°55'9 9.2
2016-Dec-20 10:34N 58°56' E 011°10'2 2.1
2016-Dec-20 09:33N 58°56' E 011°06'1616.0
2016-Dec-20 08:33N 59°01' E 010°36'1313.2
2016-Dec-20 07:33N 59°07' E 010°14'0 0.4
2016-Dec-20 06:33N 59°07' E 010°14'1 1.3
2016-Dec-20 05:33N 59°06' E 010°14'0 0.0
2016-Dec-20 04:33N 59°06' E 010°14'0 0.0
2016-Dec-20 03:31N 59°06' E 010°14'0 0.0
2016-Dec-20 02:32N 59°06' E 010°14'0 0.0
2016-Dec-20 01:33N 59°06' E 010°14'0 0.0
2016-Dec-20 00:33N 59°06' E 010°14'0 0.0
2016-Dec-19 23:31N 59°06' E 010°14'0 0.0
2016-Dec-19 22:32N 59°06' E 010°14'0 0.0
2016-Dec-19 21:32N 59°06' E 010°14'1 1.1
2016-Dec-19 20:34N 59°07' E 010°14'3 2.9
2016-Dec-19 19:34N 59°04' E 010°15'1413.7
2016-Dec-19 18:33N 59°01' E 010°41'1515.0
2016-Dec-19 17:34N 58°56' E 011°08'3 2.7
2016-Dec-19 16:34N 58°57' E 011°03'1515.3
2016-Dec-19 15:34N 59°01' E 010°35'1212.2
2016-Dec-19 14:34N 59°07' E 010°14'1 1.0
2016-Dec-19 13:33N 59°08' E 010°14'10 9.8
2016-Dec-19 12:34N 59°01' E 010°27'1514.9
2016-Dec-19 11:33N 59°00' E 010°56'8 8.4
2016-Dec-19 10:34N 58°56' E 011°10'4 4.1
2016-Dec-19 09:34N 58°58' E 011°03'1515.4
2016-Dec-19 08:34N 59°01' E 010°34'1212.2
2016-Dec-19 07:33N 59°07' E 010°14'0 0.4
2016-Dec-19 06:34N 59°08' E 010°14'1 1.4
2016-Dec-19 05:33N 59°06' E 010°14'0 0.0
2016-Dec-19 04:31N 59°06' E 010°14'0 0.0
2016-Dec-19 03:32N 59°06' E 010°14'0 0.0
2016-Dec-19 02:32N 59°06' E 010°14'0 0.0
2016-Dec-19 01:30N 59°06' E 010°14'0 0.0
2016-Dec-19 00:31N 59°06' E 010°14'0 0.0
2016-Dec-18 23:31N 59°06' E 010°14'0 0.0
2016-Dec-18 22:32N 59°06' E 010°14'0 0.0
2016-Dec-18 21:34N 59°06' E 010°14'1 0.7
2016-Dec-18 20:34N 59°07' E 010°14'3 3.3
2016-Dec-18 19:33N 59°04' E 010°15'1514.8
2016-Dec-18 18:33N 59°02' E 010°44'1414.5
2016-Dec-18 17:34N 58°56' E 011°09'1 1.3
2016-Dec-18 16:33N 58°56' E 011°07'1514.5
2016-Dec-18 15:33N 59°01' E 010°40'1414.1
2016-Dec-18 14:33N 59°05' E 010°14'2 2.1
2016-Dec-18 13:34N 59°08' E 010°14'1010.4
2016-Dec-18 12:33N 59°01' E 010°29'1615.6
2016-Dec-18 11:34N 58°60' E 010°59'7 6.8
2016-Dec-18 10:34N 58°56' E 011°10'5 5.0
2016-Dec-18 09:34N 58°58' E 011°02'1615.9
2016-Dec-18 08:33N 59°00' E 010°31'1111.3
2016-Dec-18 07:34N 59°07' E 010°14'1 0.7
2016-Dec-18 06:34N 59°07' E 010°14'1 0.6
2016-Dec-18 05:34N 59°06' E 010°14'0 0.0
2016-Dec-18 04:34N 59°06' E 010°14'0 0.0
2016-Dec-18 03:34N 59°06' E 010°14'0 0.0
2016-Dec-18 02:34N 59°06' E 010°14'0 0.0
2016-Dec-18 01:34N 59°06' E 010°14'0 0.0
2016-Dec-18 00:34N 59°06' E 010°14'0 0.0
2016-Dec-17 23:34N 59°06' E 010°14'0 0.0
2016-Dec-17 22:34N 59°06' E 010°14'0 0.0
2016-Dec-17 21:34N 59°06' E 010°14'0 0.3
2016-Dec-17 20:34N 59°06' E 010°14'2 2.3
2016-Dec-17 19:34N 59°04' E 010°15'1414.4
2016-Dec-17 18:34N 59°01' E 010°42'1515.0
2016-Dec-17 17:34N 58°56' E 011°09'2 2.0
2016-Dec-17 16:34N 58°56' E 011°05'1515.0
2016-Dec-17 15:33N 59°01' E 010°38'1313.3
2016-Dec-17 14:34N 59°06' E 010°14'1 1.4
2016-Dec-17 13:34N 59°08' E 010°14'10 9.7
2016-Dec-17 12:33N 59°01' E 010°27'1615.6
2016-Dec-17 11:34N 59°00' E 010°57'8 7.8
2016-Dec-17 10:34N 58°56' E 011°10'5 5.4
2016-Dec-17 09:34N 58°59' E 011°01'1616.5
2016-Dec-17 08:33N 59°00' E 010°29'1110.8
2016-Dec-17 07:34N 59°08' E 010°14'0 0.3
2016-Dec-17 06:34N 59°07' E 010°14'1 1.1
2016-Dec-17 05:32N 59°06' E 010°14'0 0.0
2016-Dec-17 04:32N 59°06' E 010°14'0 0.0
2016-Dec-17 03:33N 59°06' E 010°14'0 0.0
2016-Dec-17 02:31N 59°06' E 010°14'0 0.0
2016-Dec-17 01:28N 59°06' E 010°14'0 0.0
2016-Dec-17 00:32N 59°06' E 010°14'0 0.0
2016-Dec-16 23:33N 59°06' E 010°14'0 0.0
2016-Dec-16 22:33N 59°06' E 010°14'0 0.0
2016-Dec-16 21:28N 59°06' E 010°14'0 0.3
2016-Dec-16 20:34N 59°06' E 010°14'3 2.9
2016-Dec-16 19:34N 59°04' E 010°15'1414.3
2016-Dec-16 18:34N 59°01' E 010°42'1514.7
2016-Dec-16 17:34N 58°56' E 011°09'3 3.0
2016-Dec-16 16:34N 58°57' E 011°04'1514.7
2016-Dec-16 15:33N 59°01' E 010°36'1312.8
2016-Dec-16 14:34N 59°07' E 010°14'1 1.0
2016-Dec-16 13:34N 59°08' E 010°14'1010.3
2016-Dec-16 12:34N 59°01' E 010°28'1414.5
2016-Dec-16 11:34N 59°00' E 010°57'8 8.2
2016-Dec-16 10:33N 58°56' E 011°10'5 4.8
2016-Dec-16 09:34N 58°58' E 011°02'1615.9
2016-Dec-16 08:33N 59°01' E 010°31'1111.4
2016-Dec-16 07:33N 59°07' E 010°14'0 0.3
2016-Dec-16 06:34N 59°07' E 010°14'1 1.0
2016-Dec-16 05:34N 59°06' E 010°14'0 0.0
2016-Dec-16 04:34N 59°06' E 010°14'0 0.0
2016-Dec-16 03:34N 59°06' E 010°14'0 0.0
2016-Dec-16 02:34N 59°06' E 010°14'0 0.0
2016-Dec-16 01:34N 59°06' E 010°14'0 0.0
2016-Dec-16 00:33N 59°06' E 010°14'0 0.0
2016-Dec-15 23:34N 59°06' E 010°14'0 0.0
2016-Dec-15 22:34N 59°06' E 010°14'0 0.0
2016-Dec-15 21:33N 59°06' E 010°14'1 1.0
2016-Dec-15 20:34N 59°07' E 010°14'3 2.6
2016-Dec-15 19:33N 59°05' E 010°15'1414.0
2016-Dec-15 18:33N 59°01' E 010°41'1514.7
2016-Dec-15 17:34N 58°56' E 011°08'2 2.0
2016-Dec-15 16:33N 58°57' E 011°04'1515.4
2016-Dec-15 15:33N 59°01' E 010°35'1212.4
2016-Dec-15 14:33N 59°07' E 010°14'1 1.0
2016-Dec-15 13:34N 59°08' E 010°14'1010.1
2016-Dec-15 12:33N 59°01' E 010°28'1615.6
2016-Dec-15 11:33N 58°60' E 010°58'7 7.1
2016-Dec-15 10:34N 58°56' E 011°10'5 5.1
2016-Dec-15 09:34N 58°58' E 011°01'1515.3
2016-Dec-15 08:34N 59°01' E 010°32'1211.5
2016-Dec-15 07:33N 59°07' E 010°14'0 0.2
2016-Dec-15 06:33N 59°07' E 010°14'1 1.2
2016-Dec-15 05:34N 59°06' E 010°14'0 0.0
2016-Dec-15 04:33N 59°06' E 010°14'0 0.0
2016-Dec-15 03:33N 59°06' E 010°14'0 0.0
2016-Dec-15 02:33N 59°06' E 010°14'0 0.0
2016-Dec-15 01:33N 59°06' E 010°14'0 0.0
2016-Dec-15 00:33N 59°06' E 010°14'0 0.0
2016-Dec-14 23:34N 59°06' E 010°14'0 0.0
2016-Dec-14 22:33N 59°06' E 010°14'0 0.0
2016-Dec-14 21:34N 59°06' E 010°14'0 0.1
2016-Dec-14 20:34N 59°06' E 010°14'2 2.1
2016-Dec-14 19:34N 59°04' E 010°15'1413.9
2016-Dec-14 18:33N 59°01' E 010°41'1414.5
2016-Dec-14 17:33N 58°56' E 011°07'2 1.9
2016-Dec-14 16:34N 58°57' E 011°04'1514.9
2016-Dec-14 15:33N 59°01' E 010°36'1312.5
2016-Dec-14 14:34N 59°06' E 010°14'2 1.6
2016-Dec-14 13:34N 59°08' E 010°14'1110.6
2016-Dec-14 12:33N 59°01' E 010°29'1514.7
2016-Dec-14 11:34N 59°00' E 010°58'8 7.6
2016-Dec-14 10:34N 58°56' E 011°10'4 4.5
2016-Dec-14 09:34N 58°58' E 011°02'1615.5
2016-Dec-14 08:34N 59°00' E 010°33'1212.0
2016-Dec-14 07:34N 59°07' E 010°14'0 0.1
2016-Dec-14 06:34N 59°07' E 010°14'1 1.2
2016-Dec-14 05:33N 59°06' E 010°14'  
Track history (hours):
 
Tides and Currents Weather Stations Pressure Air Temp Water Temp Dewpoint Dewpoint Depression Visibility Wind Speed Wind Dir Waves Ship Positions

DucheSS Of Scandinavia

Operator: DFDS A/S

Last reported at 2016-Dec-24 05:14 UTC. Time now 2017-Jan-24 23:28 UTC.
Position N 56°11' E 011°05'.
Warning: this ship's position is 31 days out of date.

Length 134 m; draft 5.4 m.

Type: Passenger vessel. MMSI: 219002929.

Date/timePositionNaut miles runAvg speedWind from/ knotsBaromVisibWave heightAir tempDewpointWater temp
2016-Dec-24 05:14N 56°11' E 011°05'7515.8
2016-Dec-24 00:30N 57°25' E 010°43'1415.3
2016-Dec-23 23:33N 57°39' E 010°44'1514.8
2016-Dec-23 22:33N 57°54' E 010°42'4314.3
2016-Dec-23 19:33N 58°36' E 010°26'1413.7
2016-Dec-23 18:33N 58°50' E 010°21'1414.1
2016-Dec-23 17:34N 59°03' E 010°15'3 2.9
2016-Dec-23 16:34N 59°06' E 010°14'0 0.1
2016-Dec-23 15:33N 59°06' E 010°14'0 0.0
2016-Dec-23 14:34N 59°06' E 010°14'1 1.4
2016-Dec-23 13:34N 59°08' E 010°14'9 9.4
2016-Dec-23 12:34N 59°01' E 010°26'1514.7
2016-Dec-23 11:34N 59°00' E 010°55'9 9.2
2016-Dec-23 10:34N 58°56' E 011°10'6 5.9
2016-Dec-23 09:33N 58°59' E 011°00'1515.4
2016-Dec-23 08:34N 59°00' E 010°31'1111.2
2016-Dec-23 07:33N 59°07' E 010°14'0 0.3
2016-Dec-23 06:33N 59°07' E 010°14'1 0.9
2016-Dec-23 05:31N 59°06' E 010°14'0 0.0
2016-Dec-23 04:17N 59°06' E 010°14'0 0.0
2016-Dec-23 03:33N 59°06' E 010°14'0 0.0
2016-Dec-23 02:33N 59°06' E 010°14'0 0.0
2016-Dec-23 01:28N 59°06' E 010°14'0 0.0
2016-Dec-23 00:32N 59°06' E 010°14'0 0.0
2016-Dec-22 23:32N 59°06' E 010°14'0 0.0
2016-Dec-22 22:33N 59°06' E 010°14'0 0.0
2016-Dec-22 21:31N 59°06' E 010°14'1 1.3
2016-Dec-22 20:33N 59°07' E 010°14'6 6.4
2016-Dec-22 19:33N 59°01' E 010°18'1312.5
2016-Dec-22 18:33N 59°02' E 010°43'1414.1
2016-Dec-22 17:34N 58°56' E 011°08'2 2.3
2016-Dec-22 16:34N 58°57' E 011°04'1515.1
2016-Dec-22 15:34N 59°01' E 010°35'1312.5
2016-Dec-22 14:34N 59°07' E 010°14'1 0.9
2016-Dec-22 13:34N 59°08' E 010°14'1111.3
2016-Dec-22 12:34N 59°00' E 010°30'1413.9
2016-Dec-22 11:34N 59°00' E 010°57'8 7.8
2016-Dec-22 10:33N 58°56' E 011°10'5 5.2
2016-Dec-22 09:34N 58°59' E 011°01'1515.1
2016-Dec-22 08:34N 59°01' E 010°32'1211.7
2016-Dec-22 07:33N 59°07' E 010°14'1 1.2
2016-Dec-22 06:34N 59°06' E 010°14'0 0.0
2016-Dec-22 05:33N 59°06' E 010°14'0 0.0
2016-Dec-22 04:31N 59°06' E 010°14'0 0.0
2016-Dec-22 03:31N 59°06' E 010°14'0 0.0
2016-Dec-22 02:32N 59°06' E 010°14'0 0.0
2016-Dec-22 01:33N 59°06' E 010°14'0 0.0
2016-Dec-22 00:30N 59°06' E 010°14'0 0.0
2016-Dec-21 23:28N 59°06' E 010°14'0 0.0
2016-Dec-21 22:32N 59°06' E 010°14'0 0.0
2016-Dec-21 21:32N 59°06' E 010°14'1 0.8
2016-Dec-21 20:34N 59°07' E 010°14'4 3.7
2016-Dec-21 19:34N 59°03' E 010°15'1313.0
2016-Dec-21 18:34N 59°01' E 010°40'1514.8
2016-Dec-21 17:33N 58°56' E 011°07'1 1.5
2016-Dec-21 16:34N 58°57' E 011°04'1414.4
2016-Dec-21 15:34N 59°01' E 010°38'1313.0
2016-Dec-21 14:33N 59°06' E 010°14'2 1.6
2016-Dec-21 13:33N 59°08' E 010°14'10 9.6
2016-Dec-21 12:34N 59°01' E 010°27'1414.3
2016-Dec-21 11:34N 59°01' E 010°54'9 9.4
2016-Dec-21 10:33N 58°56' E 011°10'4 4.4
2016-Dec-21 09:34N 58°58' E 011°03'1515.0
2016-Dec-21 08:34N 59°01' E 010°34'1212.2
2016-Dec-21 07:34N 59°07' E 010°14'0 0.2
2016-Dec-21 06:33N 59°07' E 010°14'1 1.1
2016-Dec-21 05:32N 59°06' E 010°14'0 0.0
2016-Dec-21 04:32N 59°06' E 010°14'0 0.0
2016-Dec-21 03:33N 59°06' E 010°14'0 0.0
2016-Dec-21 02:31N 59°06' E 010°14'0 0.0
2016-Dec-21 01:31N 59°06' E 010°14'0 0.0
2016-Dec-21 00:32N 59°06' E 010°14'0 0.0
2016-Dec-20 23:30N 59°06' E 010°14'0 0.0
2016-Dec-20 22:33N 59°06' E 010°14'0 0.0
2016-Dec-20 21:25N 59°06' E 010°14'0 0.1
2016-Dec-20 20:34N 59°06' E 010°14'1 1.3
2016-Dec-20 19:34N 59°05' E 010°15'1313.2
2016-Dec-20 18:34N 59°02' E 010°39'1515.1
2016-Dec-20 17:34N 58°56' E 011°07'2 1.6
2016-Dec-20 16:34N 58°57' E 011°04'1413.7
2016-Dec-20 15:33N 59°01' E 010°39'1313.1
2016-Dec-20 14:34N 59°05' E 010°14'2 2.4
2016-Dec-20 13:34N 59°08' E 010°14'10 9.7
2016-Dec-20 12:33N 59°01' E 010°27'1414.2
2016-Dec-20 11:33N 59°01' E 010°55'9 9.2
2016-Dec-20 10:34N 58°56' E 011°10'2 2.1
2016-Dec-20 09:33N 58°56' E 011°06'1616.0
2016-Dec-20 08:33N 59°01' E 010°36'1313.2
2016-Dec-20 07:33N 59°07' E 010°14'0 0.4
2016-Dec-20 06:33N 59°07' E 010°14'1 1.3
2016-Dec-20 05:33N 59°06' E 010°14'0 0.0
2016-Dec-20 04:33N 59°06' E 010°14'0 0.0
2016-Dec-20 03:31N 59°06' E 010°14'0 0.0
2016-Dec-20 02:32N 59°06' E 010°14'0 0.0
2016-Dec-20 01:33N 59°06' E 010°14'0 0.0
2016-Dec-20 00:33N 59°06' E 010°14'0 0.0
2016-Dec-19 23:31N 59°06' E 010°14'0 0.0
2016-Dec-19 22:32N 59°06' E 010°14'0 0.0
2016-Dec-19 21:32N 59°06' E 010°14'1 1.1
2016-Dec-19 20:34N 59°07' E 010°14'3 2.9
2016-Dec-19 19:34N 59°04' E 010°15'1413.7
2016-Dec-19 18:33N 59°01' E 010°41'1515.0
2016-Dec-19 17:34N 58°56' E 011°08'3 2.7
2016-Dec-19 16:34N 58°57' E 011°03'1515.3
2016-Dec-19 15:34N 59°01' E 010°35'1212.2
2016-Dec-19 14:34N 59°07' E 010°14'1 1.0
2016-Dec-19 13:33N 59°08' E 010°14'10 9.8
2016-Dec-19 12:34N 59°01' E 010°27'1514.9
2016-Dec-19 11:33N 59°00' E 010°56'8 8.4
2016-Dec-19 10:34N 58°56' E 011°10'4 4.1
2016-Dec-19 09:34N 58°58' E 011°03'1515.4
2016-Dec-19 08:34N 59°01' E 010°34'1212.2
2016-Dec-19 07:33N 59°07' E 010°14'0 0.4
2016-Dec-19 06:34N 59°08' E 010°14'1 1.4
2016-Dec-19 05:33N 59°06' E 010°14'0 0.0
2016-Dec-19 04:31N 59°06' E 010°14'0 0.0
2016-Dec-19 03:32N 59°06' E 010°14'0 0.0
2016-Dec-19 02:32N 59°06' E 010°14'0 0.0
2016-Dec-19 01:30N 59°06' E 010°14'0 0.0
2016-Dec-19 00:31N 59°06' E 010°14'0 0.0
2016-Dec-18 23:31N 59°06' E 010°14'0 0.0
2016-Dec-18 22:32N 59°06' E 010°14'0 0.0
2016-Dec-18 21:34N 59°06' E 010°14'1 0.7
2016-Dec-18 20:34N 59°07' E 010°14'3 3.3
2016-Dec-18 19:33N 59°04' E 010°15'1514.8
2016-Dec-18 18:33N 59°02' E 010°44'1414.5
2016-Dec-18 17:34N 58°56' E 011°09'1 1.3
2016-Dec-18 16:33N 58°56' E 011°07'1514.5
2016-Dec-18 15:33N 59°01' E 010°40'1414.1
2016-Dec-18 14:33N 59°05' E 010°14'2 2.1
2016-Dec-18 13:34N 59°08' E 010°14'1010.4
2016-Dec-18 12:33N 59°01' E 010°29'1615.6
2016-Dec-18 11:34N 58°60' E 010°59'7 6.8
2016-Dec-18 10:34N 58°56' E 011°10'5 5.0
2016-Dec-18 09:34N 58°58' E 011°02'1615.9
2016-Dec-18 08:33N 59°00' E 010°31'1111.3
2016-Dec-18 07:34N 59°07' E 010°14'1 0.7
2016-Dec-18 06:34N 59°07' E 010°14'1 0.6
2016-Dec-18 05:34N 59°06' E 010°14'0 0.0
2016-Dec-18 04:34N 59°06' E 010°14'0 0.0
2016-Dec-18 03:34N 59°06' E 010°14'0 0.0
2016-Dec-18 02:34N 59°06' E 010°14'0 0.0
2016-Dec-18 01:34N 59°06' E 010°14'0 0.0
2016-Dec-18 00:34N 59°06' E 010°14'0 0.0
2016-Dec-17 23:34N 59°06' E 010°14'0 0.0
2016-Dec-17 22:34N 59°06' E 010°14'0 0.0
2016-Dec-17 21:34N 59°06' E 010°14'0 0.3
2016-Dec-17 20:34N 59°06' E 010°14'2 2.3
2016-Dec-17 19:34N 59°04' E 010°15'1414.4
2016-Dec-17 18:34N 59°01' E 010°42'1515.0
2016-Dec-17 17:34N 58°56' E 011°09'2 2.0
2016-Dec-17 16:34N 58°56' E 011°05'1515.0
2016-Dec-17 15:33N 59°01' E 010°38'1313.3
2016-Dec-17 14:34N 59°06' E 010°14'1 1.4
2016-Dec-17 13:34N 59°08' E 010°14'10 9.7
2016-Dec-17 12:33N 59°01' E 010°27'1615.6
2016-Dec-17 11:34N 59°00' E 010°57'8 7.8
2016-Dec-17 10:34N 58°56' E 011°10'5 5.4
2016-Dec-17 09:34N 58°59' E 011°01'1616.5
2016-Dec-17 08:33N 59°00' E 010°29'1110.8
2016-Dec-17 07:34N 59°08' E 010°14'0 0.3
2016-Dec-17 06:34N 59°07' E 010°14'1 1.1
2016-Dec-17 05:32N 59°06' E 010°14'0 0.0
2016-Dec-17 04:32N 59°06' E 010°14'0 0.0
2016-Dec-17 03:33N 59°06' E 010°14'0 0.0
2016-Dec-17 02:31N 59°06' E 010°14'0 0.0
2016-Dec-17 01:28N 59°06' E 010°14'0 0.0
2016-Dec-17 00:32N 59°06' E 010°14'0 0.0
2016-Dec-16 23:33N 59°06' E 010°14'0 0.0
2016-Dec-16 22:33N 59°06' E 010°14'0 0.0
2016-Dec-16 21:28N 59°06' E 010°14'0 0.3
2016-Dec-16 20:34N 59°06' E 010°14'3 2.9
2016-Dec-16 19:34N 59°04' E 010°15'1414.3
2016-Dec-16 18:34N 59°01' E 010°42'1514.7
2016-Dec-16 17:34N 58°56' E 011°09'3 3.0
2016-Dec-16 16:34N 58°57' E 011°04'1514.7
2016-Dec-16 15:33N 59°01' E 010°36'1312.8
2016-Dec-16 14:34N 59°07' E 010°14'1 1.0
2016-Dec-16 13:34N 59°08' E 010°14'1010.3
2016-Dec-16 12:34N 59°01' E 010°28'1414.5
2016-Dec-16 11:34N 59°00' E 010°57'8 8.2
2016-Dec-16 10:33N 58°56' E 011°10'5 4.8
2016-Dec-16 09:34N 58°58' E 011°02'1615.9
2016-Dec-16 08:33N 59°01' E 010°31'1111.4
2016-Dec-16 07:33N 59°07' E 010°14'0 0.3
2016-Dec-16 06:34N 59°07' E 010°14'1 1.0
2016-Dec-16 05:34N 59°06' E 010°14'0 0.0
2016-Dec-16 04:34N 59°06' E 010°14'0 0.0
2016-Dec-16 03:34N 59°06' E 010°14'0 0.0
2016-Dec-16 02:34N 59°06' E 010°14'0 0.0
2016-Dec-16 01:34N 59°06' E 010°14'0 0.0
2016-Dec-16 00:33N 59°06' E 010°14'0 0.0
2016-Dec-15 23:34N 59°06' E 010°14'0 0.0
2016-Dec-15 22:34N 59°06' E 010°14'0 0.0
2016-Dec-15 21:33N 59°06' E 010°14'1 1.0
2016-Dec-15 20:34N 59°07' E 010°14'3 2.6
2016-Dec-15 19:33N 59°05' E 010°15'1414.0
2016-Dec-15 18:33N 59°01' E 010°41'1514.7
2016-Dec-15 17:34N 58°56' E 011°08'2 2.0
2016-Dec-15 16:33N 58°57' E 011°04'1515.4
2016-Dec-15 15:33N 59°01' E 010°35'1212.4
2016-Dec-15 14:33N 59°07' E 010°14'1 1.0
2016-Dec-15 13:34N 59°08' E 010°14'1010.1
2016-Dec-15 12:33N 59°01' E 010°28'1615.6
2016-Dec-15 11:33N 58°60' E 010°58'7 7.1
2016-Dec-15 10:34N 58°56' E 011°10'5 5.1
2016-Dec-15 09:34N 58°58' E 011°01'1515.3
2016-Dec-15 08:34N 59°01' E 010°32'1211.5
2016-Dec-15 07:33N 59°07' E 010°14'0 0.2
2016-Dec-15 06:33N 59°07' E 010°14'1 1.2
2016-Dec-15 05:34N 59°06' E 010°14'0 0.0
2016-Dec-15 04:33N 59°06' E 010°14'0 0.0
2016-Dec-15 03:33N 59°06' E 010°14'0 0.0
2016-Dec-15 02:33N 59°06' E 010°14'0 0.0
2016-Dec-15 01:33N 59°06' E 010°14'0 0.0
2016-Dec-15 00:33N 59°06' E 010°14'0 0.0
2016-Dec-14 23:34N 59°06' E 010°14'0 0.0
2016-Dec-14 22:33N 59°06' E 010°14'0 0.0
2016-Dec-14 21:34N 59°06' E 010°14'0 0.1
2016-Dec-14 20:34N 59°06' E 010°14'2 2.1
2016-Dec-14 19:34N 59°04' E 010°15'1413.9
2016-Dec-14 18:33N 59°01' E 010°41'1414.5
2016-Dec-14 17:33N 58°56' E 011°07'2 1.9
2016-Dec-14 16:34N 58°57' E 011°04'1514.9
2016-Dec-14 15:33N 59°01' E 010°36'1312.5
2016-Dec-14 14:34N 59°06' E 010°14'2 1.6
2016-Dec-14 13:34N 59°08' E 010°14'1110.6
2016-Dec-14 12:33N 59°01' E 010°29'1514.7
2016-Dec-14 11:34N 59°00' E 010°58'8 7.6
2016-Dec-14 10:34N 58°56' E 011°10'4 4.5
2016-Dec-14 09:34N 58°58' E 011°02'1615.5
2016-Dec-14 08:34N 59°00' E 010°33'1212.0
2016-Dec-14 07:34N 59°07' E 010°14'0 0.1
2016-Dec-14 06:34N 59°07' E 010°14'1 1.2
2016-Dec-14 05:33N 59°06' E 010°14'  

Dump ship's entire track history